createdAt,value
2018-11-22T12:16:59.905Z,4.70
2018-11-22T12:19:29.885Z,4.70
2018-11-22T12:21:59.899Z,4.80
2018-11-22T12:24:29.718Z,4.80
2018-11-22T12:26:59.433Z,4.80
2018-11-22T12:29:29.843Z,4.80
2018-11-22T12:33:02.262Z,4.70
2018-11-22T12:35:38.822Z,4.70
2018-11-22T12:38:13.568Z,4.70
2018-11-22T12:40:43.169Z,4.70
2018-11-22T12:43:13.014Z,4.70
2018-11-22T12:45:42.647Z,4.80
2018-11-22T12:48:12.556Z,4.80
2018-11-22T12:50:42.206Z,4.80
2018-11-22T12:53:11.890Z,4.80
2018-11-22T12:55:41.692Z,4.80
2018-11-22T12:58:11.287Z,4.80
2018-11-22T13:00:40.918Z,4.90
2018-11-22T13:03:10.514Z,4.90
2018-11-22T13:05:40.158Z,4.90
2018-11-22T13:08:09.804Z,5.00
2018-11-22T13:10:39.438Z,5.00
2018-11-22T13:13:09.048Z,5.00
2018-11-22T13:15:38.727Z,5.00
2018-11-22T13:18:08.347Z,5.00
2018-11-22T13:20:38.016Z,4.90
2018-11-22T13:23:07.719Z,4.80
2018-11-22T13:25:37.341Z,4.90
2018-11-22T13:28:07.024Z,4.90
2018-11-22T13:30:48.235Z,4.90
2018-11-22T13:33:17.925Z,4.90
2018-11-22T13:35:47.536Z,4.90
2018-11-22T13:38:17.216Z,4.80
2018-11-22T13:40:46.838Z,4.80
2018-11-22T13:43:16.464Z,4.90
2018-11-22T13:45:46.119Z,4.80
2018-11-22T13:48:15.750Z,4.90
2018-11-22T13:50:45.411Z,4.90
2018-11-22T13:53:20.472Z,4.90
2018-11-22T13:55:44.798Z,4.90
2018-11-22T13:58:14.582Z,4.80
2018-11-22T14:00:44.233Z,4.80
2018-11-22T14:03:13.834Z,4.80
2018-11-22T14:05:43.467Z,4.80
2018-11-22T14:08:13.122Z,4.80
2018-11-22T14:10:42.743Z,4.80
2018-11-22T14:13:12.334Z,4.80
2018-11-22T14:15:41.970Z,4.80
2018-11-22T14:18:11.615Z,4.80
2018-11-22T14:20:41.235Z,4.90
2018-11-22T14:23:10.875Z,4.90
2018-11-22T14:25:40.467Z,4.90
2018-11-22T14:28:10.098Z,4.90
2018-11-22T14:30:39.701Z,4.90
2018-11-22T14:33:09.362Z,5.00
2018-11-22T14:35:38.998Z,5.00
2018-11-22T14:38:08.639Z,5.00
2018-11-22T14:40:38.283Z,5.00
2018-11-22T14:43:07.927Z,4.90
2018-11-22T14:45:37.563Z,4.90
2018-11-22T14:48:07.205Z,4.90
2018-11-22T14:50:48.566Z,4.90
2018-11-22T14:53:19.971Z,5.00
2018-11-22T14:55:49.653Z,5.00
2018-11-22T14:58:19.325Z,5.00
2018-11-22T15:00:48.976Z,5.10
2018-11-22T15:03:18.623Z,5.10
2018-11-22T15:05:48.279Z,5.10
2018-11-22T15:08:17.926Z,5.00
2018-11-22T15:10:47.563Z,5.10
2018-11-22T15:13:17.193Z,5.00
2018-11-22T15:15:46.958Z,5.00
2018-11-22T15:18:16.592Z,5.00
2018-11-22T15:20:46.213Z,4.90
2018-11-22T15:23:15.839Z,4.90
2018-11-22T15:25:45.466Z,4.90
2018-11-22T15:28:15.109Z,4.90
2018-11-22T15:30:44.758Z,4.90
2018-11-22T15:33:14.349Z,4.80
2018-11-22T15:35:43.978Z,4.80
2018-11-22T15:38:14.711Z,4.80
2018-11-22T15:40:44.475Z,4.80
2018-11-22T15:43:14.100Z,4.70
2018-11-22T15:45:43.746Z,4.60
2018-11-22T15:48:13.374Z,4.50
2018-11-22T15:50:43.004Z,4.50
2018-11-22T15:53:12.762Z,4.50
2018-11-22T15:55:42.474Z,4.40
2018-11-22T15:58:12.171Z,4.50
2018-11-22T16:00:42.902Z,4.50
2018-11-22T16:03:12.595Z,4.40
2018-11-22T16:05:42.230Z,4.30
2018-11-22T16:08:11.910Z,4.20
2018-11-22T16:10:41.557Z,4.10
2018-11-22T16:13:12.243Z,4.10
2018-11-22T16:15:45.127Z,4.00
2018-11-22T16:18:14.774Z,4.00
2018-11-22T16:20:44.423Z,4.00
2018-11-22T16:23:14.077Z,4.00
2018-11-22T16:25:43.750Z,4.00
2018-11-22T16:28:13.406Z,4.00
2018-11-22T16:30:43.686Z,3.90
2018-11-22T16:33:13.312Z,3.80
2018-11-22T16:35:42.962Z,3.80
2018-11-22T16:38:12.583Z,3.60
2018-11-22T16:40:42.178Z,3.50
2018-11-22T16:43:11.810Z,3.40
2018-11-22T16:45:41.458Z,3.20
2018-11-22T16:48:12.587Z,3.00
2018-11-22T16:50:42.779Z,3.00
2018-11-22T16:53:16.980Z,2.90
2018-11-22T16:55:46.631Z,2.90
2018-11-22T16:58:16.325Z,2.80
2018-11-22T17:00:46.007Z,2.70
2018-11-22T17:03:15.639Z,2.60
2018-11-22T17:05:45.545Z,2.50
2018-11-22T17:08:15.207Z,2.50
2018-11-22T17:10:44.907Z,2.50
2018-11-22T17:13:14.553Z,2.40
2018-11-22T17:15:44.400Z,2.30
2018-11-22T17:18:14.032Z,2.30
2018-11-22T17:20:43.742Z,2.20
2018-11-22T17:23:13.435Z,2.10
2018-11-22T17:25:43.101Z,2.10
2018-11-22T17:28:17.406Z,2.00
2018-11-22T17:30:47.051Z,2.00
2018-11-22T17:33:16.691Z,1.90
2018-11-22T17:35:46.315Z,1.90
2018-11-22T17:38:15.990Z,1.80
2018-11-22T17:40:47.918Z,1.80
2018-11-22T17:43:19.630Z,1.80
2018-11-22T17:45:59.003Z,1.80
2018-11-22T17:48:28.651Z,1.70
2018-11-22T17:50:58.291Z,1.70
2018-11-22T17:53:28.065Z,1.70
2018-11-22T17:55:57.779Z,1.70
2018-11-22T17:58:27.439Z,1.60
2018-11-22T18:00:57.120Z,1.60
2018-11-22T18:03:26.870Z,1.60
2018-11-22T18:05:58.298Z,1.50
2018-11-22T18:08:28.012Z,1.50
2018-11-22T18:10:57.662Z,1.50
2018-11-22T18:13:27.350Z,1.50
2018-11-22T18:16:15.024Z,1.40
2018-11-22T18:18:44.699Z,1.40
2018-11-22T18:21:14.307Z,1.40
2018-11-22T18:23:44.007Z,1.40
2018-11-22T18:26:29.650Z,1.30
2018-11-22T18:29:03.109Z,1.30
2018-11-22T18:31:32.853Z,1.20
2018-11-22T18:34:02.482Z,1.20
2018-11-22T18:36:32.142Z,1.10
2018-11-22T18:39:01.987Z,1.10
2018-11-22T18:41:31.656Z,1.00
2018-11-22T18:44:01.312Z,0.90
2018-11-22T18:46:30.967Z,0.90
2018-11-22T18:49:00.586Z,0.90
2018-11-22T18:51:30.236Z,0.90
2018-11-22T18:53:59.878Z,0.90
2018-11-22T18:56:29.779Z,0.90
2018-11-22T18:59:03.062Z,0.80
2018-11-22T19:01:38.900Z,0.80
2018-11-22T19:04:12.301Z,0.80
2018-11-22T19:06:48.283Z,0.70
2018-11-22T19:09:30.641Z,0.70
2018-11-22T19:12:02.829Z,0.60
2018-11-22T19:14:35.640Z,0.60
2018-11-22T19:17:11.051Z,0.50
2018-11-22T19:19:45.573Z,0.50
2018-11-22T19:22:16.023Z,0.50
2018-11-22T19:24:45.884Z,0.40
2018-11-22T19:27:16.110Z,0.40
2018-11-22T19:29:45.934Z,0.30
2018-11-22T19:32:16.105Z,0.30
2018-11-22T19:34:45.735Z,0.30
2018-11-22T19:37:15.507Z,0.30
2018-11-22T19:39:45.187Z,0.30
2018-11-22T19:42:26.982Z,0.30
2018-11-22T19:44:56.651Z,0.20
2018-11-22T19:47:26.539Z,0.20
2018-11-22T19:50:13.123Z,0.20
2018-11-22T19:52:43.319Z,0.20
2018-11-22T19:55:15.130Z,0.10
2018-11-22T19:57:46.075Z,0.10
2018-11-22T20:00:16.774Z,0.10
2018-11-22T20:02:46.782Z,0.10
2018-11-22T20:05:17.618Z,0.10
2018-11-22T20:07:48.650Z,0.00
2018-11-22T20:10:19.894Z,0.00
2018-11-22T20:12:49.705Z,0.00
2018-11-22T20:18:19.410Z,0.00
2018-11-22T20:20:50.062Z,0.00
2018-11-22T20:23:21.939Z,0.00
2018-11-22T20:25:48.786Z,0.00
2018-11-22T20:28:18.424Z,-0.10
2018-11-22T20:30:48.056Z,-0.10
2018-11-22T20:33:21.580Z,-0.10
2018-11-22T20:35:51.295Z,-0.10
2018-11-22T20:38:30.615Z,-0.10
2018-11-22T20:41:10.367Z,-0.10
2018-11-22T20:43:40.188Z,-0.20
2018-11-22T20:46:11.039Z,-0.20
2018-11-22T20:48:44.426Z,-0.20
2018-11-22T20:51:29.742Z,-0.20
2018-11-22T20:53:59.446Z,-0.20
2018-11-22T20:56:29.234Z,-0.30
2018-11-22T20:58:58.935Z,-0.30
2018-11-22T21:01:28.610Z,-0.30
2018-11-22T21:03:58.256Z,-0.40
2018-11-22T21:06:27.882Z,-0.30
2018-11-22T21:09:01.686Z,-0.40
2018-11-22T21:11:31.480Z,-0.40
2018-11-22T21:14:04.777Z,-0.30
2018-11-22T21:16:34.406Z,-0.40
2018-11-22T21:19:04.102Z,-0.30
2018-11-22T21:21:33.899Z,-0.40
2018-11-22T21:24:03.582Z,-0.40
2018-11-22T21:26:33.322Z,-0.40
2018-11-22T21:29:02.996Z,-0.40
2018-11-22T21:31:32.645Z,-0.40
2018-11-22T21:34:02.308Z,-0.40
2018-11-22T21:36:32.035Z,-0.40
2018-11-22T21:39:01.676Z,-0.40
2018-11-22T21:41:31.911Z,-0.40
2018-11-22T21:44:01.578Z,-0.40
2018-11-22T21:46:31.212Z,-0.40
2018-11-22T21:49:02.406Z,-0.40
2018-11-22T21:51:39.247Z,-0.40
2018-11-22T21:54:02.618Z,-0.40
2018-11-22T21:56:32.262Z,-0.30
2018-11-22T22:28:51.864Z,-0.40
2018-11-22T22:31:21.574Z,-0.20
2018-11-22T22:33:51.542Z,-0.30
2018-11-22T22:36:24.994Z,-0.30
2018-11-22T22:38:54.678Z,-0.30
2018-11-22T22:41:24.309Z,-0.40
2018-11-22T22:43:54.101Z,-0.40
2018-11-22T22:46:24.143Z,-0.40
2018-11-22T22:48:54.171Z,-0.40
2018-11-22T22:51:24.181Z,-0.50
2018-11-22T22:53:54.010Z,-0.50
2018-11-22T22:56:24.007Z,-0.50
2018-11-22T22:58:53.834Z,-0.50
2018-11-22T23:01:23.776Z,-0.50
2018-11-22T23:03:53.666Z,-0.50
2018-11-22T23:06:23.590Z,-0.50
2018-11-22T23:08:53.586Z,-0.60
2018-11-22T23:11:23.595Z,-0.60
2018-11-22T23:13:53.722Z,-0.60
2018-11-22T23:16:23.650Z,-0.60
2018-11-22T23:18:53.571Z,-0.60
2018-11-22T23:21:23.562Z,-0.60
2018-11-22T23:23:53.478Z,-0.60
2018-11-22T23:28:52.479Z,-0.60
2018-11-22T23:31:22.511Z,-0.60
2018-11-22T23:36:21.692Z,-0.70
2018-11-22T23:38:51.838Z,-0.70
2018-11-22T23:41:21.830Z,-0.70
2018-11-22T23:43:51.875Z,-0.70
2018-11-22T23:46:21.886Z,-0.70
